sensor_id;sensor_type;location;lat;lon;timestamp;P1;durP1;ratioP1;P2;durP2;ratioP2
36411;SDS011;22445;52.100;5.176;2023-11-22T00:00:10;17.27;;;10.15;;
36411;SDS011;22445;52.100;5.176;2023-11-22T00:02:37;17.23;;;10.77;;
36411;SDS011;22445;52.100;5.176;2023-11-22T00:05:03;24.77;;;11.40;;
36411;SDS011;22445;52.100;5.176;2023-11-22T00:07:30;18.05;;;11.20;;
36411;SDS011;22445;52.100;5.176;2023-11-22T00:09:59;25.55;;;11.20;;
36411;SDS011;22445;52.100;5.176;2023-11-22T00:12:26;18.42;;;12.00;;
36411;SDS011;22445;52.100;5.176;2023-11-22T00:14:53;23.50;;;12.75;;
36411;SDS011;22445;52.100;5.176;2023-11-22T00:17:19;22.67;;;12.63;;
36411;SDS011;22445;52.100;5.176;2023-11-22T00:19:44;24.52;;;11.80;;
36411;SDS011;22445;52.100;5.176;2023-11-22T00:22:10;20.83;;;11.68;;
36411;SDS011;22445;52.100;5.176;2023-11-22T00:24:38;21.40;;;12.20;;
36411;SDS011;22445;52.100;5.176;2023-11-22T00:27:05;20.92;;;12.20;;
36411;SDS011;22445;52.100;5.176;2023-11-22T00:29:31;20.63;;;12.05;;
36411;SDS011;22445;52.100;5.176;2023-11-22T00:31:57;22.67;;;13.32;;
36411;SDS011;22445;52.100;5.176;2023-11-22T00:34:24;22.40;;;12.05;;
36411;SDS011;22445;52.100;5.176;2023-11-22T00:36:49;11.80;;;8.38;;
36411;SDS011;22445;52.100;5.176;2023-11-22T00:39:16;11.73;;;7.68;;
36411;SDS011;22445;52.100;5.176;2023-11-22T00:41:42;14.60;;;9.15;;
36411;SDS011;22445;52.100;5.176;2023-11-22T00:44:09;18.40;;;11.60;;
36411;SDS011;22445;52.100;5.176;2023-11-22T00:46:35;18.27;;;12.02;;
36411;SDS011;22445;52.100;5.176;2023-11-22T00:49:02;20.95;;;7.32;;
36411;SDS011;22445;52.100;5.176;2023-11-22T00:51:30;14.32;;;8.18;;
36411;SDS011;22445;52.100;5.176;2023-11-22T00:53:57;13.75;;;8.73;;
36411;SDS011;22445;52.100;5.176;2023-11-22T00:56:23;12.27;;;7.88;;
36411;SDS011;22445;52.100;5.176;2023-11-22T00:58:49;18.83;;;10.52;;
36411;SDS011;22445;52.100;5.176;2023-11-22T01:01:18;19.85;;;10.57;;
36411;SDS011;22445;52.100;5.176;2023-11-22T01:03:43;19.10;;;10.35;;
36411;SDS011;22445;52.100;5.176;2023-11-22T01:06:09;16.15;;;9.30;;
36411;SDS011;22445;52.100;5.176;2023-11-22T01:08:35;16.55;;;9.52;;
36411;SDS011;22445;52.100;5.176;2023-11-22T01:11:01;18.98;;;10.43;;
36411;SDS011;22445;52.100;5.176;2023-11-22T01:13:28;17.50;;;10.60;;
36411;SDS011;22445;52.100;5.176;2023-11-22T01:15:54;18.83;;;11.43;;
36411;SDS011;22445;52.100;5.176;2023-11-22T01:18:20;18.25;;;10.50;;
36411;SDS011;22445;52.100;5.176;2023-11-22T01:20:46;21.55;;;11.48;;
36411;SDS011;22445;52.100;5.176;2023-11-22T01:23:12;19.20;;;11.82;;
36411;SDS011;22445;52.100;5.176;2023-11-22T01:25:37;20.20;;;11.02;;
36411;SDS011;22445;52.100;5.176;2023-11-22T01:28:03;19.88;;;11.27;;
36411;SDS011;22445;52.100;5.176;2023-11-22T01:30:29;16.75;;;10.20;;
36411;SDS011;22445;52.100;5.176;2023-11-22T01:32:57;17.40;;;10.45;;
36411;SDS011;22445;52.100;5.176;2023-11-22T01:35:23;22.50;;;9.77;;
36411;SDS011;22445;52.100;5.176;2023-11-22T01:37:49;17.45;;;9.88;;
36411;SDS011;22445;52.100;5.176;2023-11-22T01:40:14;20.20;;;10.05;;
36411;SDS011;22445;52.100;5.176;2023-11-22T01:42:40;16.48;;;9.65;;
36411;SDS011;22445;52.100;5.176;2023-11-22T01:45:06;32.05;;;9.77;;
36411;SDS011;22445;52.100;5.176;2023-11-22T01:47:32;9.10;;;6.32;;
36411;SDS011;22445;52.100;5.176;2023-11-22T01:49:59;7.00;;;4.63;;
36411;SDS011;22445;52.100;5.176;2023-11-22T01:52:24;10.27;;;5.90;;
36411;SDS011;22445;52.100;5.176;2023-11-22T01:54:50;14.07;;;7.97;;
36411;SDS011;22445;52.100;5.176;2023-11-22T01:57:16;13.95;;;9.00;;
36411;SDS011;22445;52.100;5.176;2023-11-22T01:59:43;15.18;;;8.85;;
36411;SDS011;22445;52.100;5.176;2023-11-22T02:02:08;15.52;;;8.10;;
36411;SDS011;22445;52.100;5.176;2023-11-22T02:04:34;13.10;;;7.85;;
36411;SDS011;22445;52.100;5.176;2023-11-22T02:06:59;10.18;;;6.65;;
36411;SDS011;22445;52.100;5.176;2023-11-22T02:09:25;10.48;;;5.50;;
36411;SDS011;22445;52.100;5.176;2023-11-22T02:11:51;11.65;;;7.53;;
36411;SDS011;22445;52.100;5.176;2023-11-22T02:14:17;12.43;;;7.18;;
36411;SDS011;22445;52.100;5.176;2023-11-22T02:16:42;15.48;;;8.93;;
36411;SDS011;22445;52.100;5.176;2023-11-22T02:19:13;15.93;;;8.57;;
36411;SDS011;22445;52.100;5.176;2023-11-22T02:21:41;15.15;;;8.98;;
36411;SDS011;22445;52.100;5.176;2023-11-22T02:24:06;10.07;;;6.65;;
36411;SDS011;22445;52.100;5.176;2023-11-22T02:26:32;8.88;;;5.90;;
36411;SDS011;22445;52.100;5.176;2023-11-22T02:28:58;8.10;;;5.78;;
36411;SDS011;22445;52.100;5.176;2023-11-22T02:31:25;6.65;;;4.75;;
36411;SDS011;22445;52.100;5.176;2023-11-22T02:33:52;10.00;;;6.60;;
36411;SDS011;22445;52.100;5.176;2023-11-22T02:36:20;4.80;;;3.50;;
36411;SDS011;22445;52.100;5.176;2023-11-22T02:38:47;5.57;;;3.75;;
36411;SDS011;22445;52.100;5.176;2023-11-22T02:41:13;8.30;;;5.43;;
36411;SDS011;22445;52.100;5.176;2023-11-22T02:43:38;16.08;;;8.48;;
36411;SDS011;22445;52.100;5.176;2023-11-22T02:46:05;18.48;;;10.10;;
36411;SDS011;22445;52.100;5.176;2023-11-22T02:48:30;15.75;;;8.73;;
36411;SDS011;22445;52.100;5.176;2023-11-22T02:50:56;18.02;;;8.02;;
36411;SDS011;22445;52.100;5.176;2023-11-22T02:53:21;14.57;;;8.70;;
36411;SDS011;22445;52.100;5.176;2023-11-22T02:55:47;19.98;;;9.00;;
36411;SDS011;22445;52.100;5.176;2023-11-22T02:58:13;14.90;;;9.43;;
36411;SDS011;22445;52.100;5.176;2023-11-22T03:00:41;15.48;;;9.25;;
36411;SDS011;22445;52.100;5.176;2023-11-22T03:03:07;17.15;;;9.50;;
36411;SDS011;22445;52.100;5.176;2023-11-22T03:05:35;16.17;;;9.52;;
36411;SDS011;22445;52.100;5.176;2023-11-22T03:08:07;17.88;;;9.40;;
36411;SDS011;22445;52.100;5.176;2023-11-22T03:10:35;18.90;;;8.85;;
36411;SDS011;22445;52.100;5.176;2023-11-22T03:13:00;18.73;;;9.77;;
36411;SDS011;22445;52.100;5.176;2023-11-22T03:15:26;13.45;;;8.50;;
36411;SDS011;22445;52.100;5.176;2023-11-22T03:17:52;17.88;;;9.23;;
36411;SDS011;22445;52.100;5.176;2023-11-22T03:20:17;18.00;;;9.40;;
36411;SDS011;22445;52.100;5.176;2023-11-22T03:22:44;27.38;;;11.55;;
36411;SDS011;22445;52.100;5.176;2023-11-22T03:25:09;23.60;;;10.50;;
36411;SDS011;22445;52.100;5.176;2023-11-22T03:27:36;15.15;;;8.48;;
36411;SDS011;22445;52.100;5.176;2023-11-22T03:30:03;14.43;;;8.73;;
36411;SDS011;22445;52.100;5.176;2023-11-22T03:32:30;14.73;;;7.10;;
36411;SDS011;22445;52.100;5.176;2023-11-22T03:34:55;17.15;;;8.85;;
36411;SDS011;22445;52.100;5.176;2023-11-22T03:37:22;10.90;;;6.38;;
36411;SDS011;22445;52.100;5.176;2023-11-22T03:39:49;12.25;;;6.47;;
36411;SDS011;22445;52.100;5.176;2023-11-22T03:42:15;10.25;;;7.40;;
36411;SDS011;22445;52.100;5.176;2023-11-22T03:44:43;12.23;;;6.80;;
36411;SDS011;22445;52.100;5.176;2023-11-22T03:47:13;12.65;;;7.30;;
36411;SDS011;22445;52.100;5.176;2023-11-22T03:49:40;13.80;;;7.03;;
36411;SDS011;22445;52.100;5.176;2023-11-22T03:52:06;13.13;;;7.57;;
36411;SDS011;22445;52.100;5.176;2023-11-22T03:54:33;17.73;;;8.82;;
36411;SDS011;22445;52.100;5.176;2023-11-22T03:56:59;13.15;;;8.63;;
36411;SDS011;22445;52.100;5.176;2023-11-22T03:59:25;15.82;;;8.57;;
36411;SDS011;22445;52.100;5.176;2023-11-22T04:01:50;8.82;;;5.45;;
36411;SDS011;22445;52.100;5.176;2023-11-22T04:04:16;13.73;;;7.28;;
36411;SDS011;22445;52.100;5.176;2023-11-22T04:06:42;14.23;;;7.85;;
36411;SDS011;22445;52.100;5.176;2023-11-22T04:09:07;12.55;;;7.03;;
36411;SDS011;22445;52.100;5.176;2023-11-22T04:11:39;9.57;;;5.93;;
36411;SDS011;22445;52.100;5.176;2023-11-22T04:14:05;15.65;;;7.55;;
36411;SDS011;22445;52.100;5.176;2023-11-22T04:16:31;14.05;;;7.43;;
36411;SDS011;22445;52.100;5.176;2023-11-22T04:18:57;10.40;;;6.47;;
36411;SDS011;22445;52.100;5.176;2023-11-22T04:21:22;13.43;;;7.30;;
36411;SDS011;22445;52.100;5.176;2023-11-22T04:23:49;13.35;;;7.57;;
36411;SDS011;22445;52.100;5.176;2023-11-22T04:26:16;18.13;;;10.38;;
36411;SDS011;22445;52.100;5.176;2023-11-22T04:28:42;138.70;;;16.73;;
36411;SDS011;22445;52.100;5.176;2023-11-22T04:31:07;15.27;;;7.45;;
36411;SDS011;22445;52.100;5.176;2023-11-22T04:33:36;41.00;;;10.30;;
36411;SDS011;22445;52.100;5.176;2023-11-22T04:36:02;18.75;;;9.52;;
36411;SDS011;22445;52.100;5.176;2023-11-22T04:38:28;12.25;;;7.63;;
36411;SDS011;22445;52.100;5.176;2023-11-22T04:40:54;20.20;;;10.40;;
36411;SDS011;22445;52.100;5.176;2023-11-22T04:43:20;23.08;;;11.18;;
36411;SDS011;22445;52.100;5.176;2023-11-22T04:45:45;21.58;;;12.23;;
36411;SDS011;22445;52.100;5.176;2023-11-22T04:48:11;23.63;;;12.10;;
36411;SDS011;22445;52.100;5.176;2023-11-22T04:50:40;24.40;;;11.07;;
36411;SDS011;22445;52.100;5.176;2023-11-22T04:53:06;22.52;;;12.65;;
36411;SDS011;22445;52.100;5.176;2023-11-22T04:55:32;26.85;;;13.05;;
36411;SDS011;22445;52.100;5.176;2023-11-22T04:57:57;22.38;;;11.68;;
36411;SDS011;22445;52.100;5.176;2023-11-22T05:00:23;24.05;;;12.30;;
36411;SDS011;22445;52.100;5.176;2023-11-22T05:02:49;20.55;;;11.05;;
36411;SDS011;22445;52.100;5.176;2023-11-22T05:05:15;22.23;;;10.77;;
36411;SDS011;22445;52.100;5.176;2023-11-22T05:07:40;23.80;;;10.57;;
36411;SDS011;22445;52.100;5.176;2023-11-22T05:10:06;20.67;;;11.13;;
36411;SDS011;22445;52.100;5.176;2023-11-22T05:12:35;19.02;;;10.65;;
36411;SDS011;22445;52.100;5.176;2023-11-22T05:15:01;21.58;;;11.98;;
36411;SDS011;22445;52.100;5.176;2023-11-22T05:17:27;21.55;;;12.35;;
36411;SDS011;22445;52.100;5.176;2023-11-22T05:19:53;28.05;;;13.02;;
36411;SDS011;22445;52.100;5.176;2023-11-22T05:22:19;24.30;;;12.52;;
36411;SDS011;22445;52.100;5.176;2023-11-22T05:24:44;27.08;;;13.35;;
36411;SDS011;22445;52.100;5.176;2023-11-22T05:27:10;24.55;;;12.43;;
36411;SDS011;22445;52.100;5.176;2023-11-22T05:29:36;24.15;;;13.38;;
36411;SDS011;22445;52.100;5.176;2023-11-22T05:32:02;28.80;;;13.20;;
36411;SDS011;22445;52.100;5.176;2023-11-22T05:34:28;16.35;;;9.45;;
36411;SDS011;22445;52.100;5.176;2023-11-22T05:36:54;15.63;;;9.43;;
36411;SDS011;22445;52.100;5.176;2023-11-22T05:39:20;24.67;;;12.73;;
36411;SDS011;22445;52.100;5.176;2023-11-22T05:41:48;24.20;;;12.80;;
36411;SDS011;22445;52.100;5.176;2023-11-22T05:44:14;25.30;;;13.98;;
36411;SDS011;22445;52.100;5.176;2023-11-22T05:46:40;29.13;;;12.77;;
36411;SDS011;22445;52.100;5.176;2023-11-22T05:49:05;26.13;;;13.30;;
36411;SDS011;22445;52.100;5.176;2023-11-22T05:51:32;29.65;;;14.82;;
36411;SDS011;22445;52.100;5.176;2023-11-22T05:53:59;25.40;;;13.70;;
36411;SDS011;22445;52.100;5.176;2023-11-22T05:56:25;22.58;;;12.48;;
36411;SDS011;22445;52.100;5.176;2023-11-22T05:58:50;23.88;;;13.02;;
36411;SDS011;22445;52.100;5.176;2023-11-22T06:01:16;23.10;;;13.15;;
36411;SDS011;22445;52.100;5.176;2023-11-22T06:03:42;25.27;;;13.63;;
36411;SDS011;22445;52.100;5.176;2023-11-22T06:06:07;26.85;;;14.15;;
36411;SDS011;22445;52.100;5.176;2023-11-22T06:08:33;27.38;;;14.82;;
36411;SDS011;22445;52.100;5.176;2023-11-22T06:10:59;26.77;;;13.30;;
36411;SDS011;22445;52.100;5.176;2023-11-22T06:13:25;28.70;;;15.20;;
36411;SDS011;22445;52.100;5.176;2023-11-22T06:15:51;28.55;;;14.55;;
36411;SDS011;22445;52.100;5.176;2023-11-22T06:18:17;25.30;;;12.90;;
36411;SDS011;22445;52.100;5.176;2023-11-22T06:20:44;26.10;;;13.50;;
36411;SDS011;22445;52.100;5.176;2023-11-22T06:23:10;26.63;;;14.05;;
36411;SDS011;22445;52.100;5.176;2023-11-22T06:25:36;27.73;;;12.90;;
36411;SDS011;22445;52.100;5.176;2023-11-22T06:28:02;29.42;;;15.02;;
36411;SDS011;22445;52.100;5.176;2023-11-22T06:30:28;27.73;;;14.25;;
36411;SDS011;22445;52.100;5.176;2023-11-22T06:32:55;30.10;;;13.38;;
36411;SDS011;22445;52.100;5.176;2023-11-22T06:35:21;28.45;;;14.00;;
36411;SDS011;22445;52.100;5.176;2023-11-22T06:37:47;30.02;;;14.02;;
36411;SDS011;22445;52.100;5.176;2023-11-22T06:40:13;27.65;;;14.80;;
36411;SDS011;22445;52.100;5.176;2023-11-22T06:42:41;33.42;;;14.90;;
36411;SDS011;22445;52.100;5.176;2023-11-22T06:45:07;31.60;;;15.00;;
36411;SDS011;22445;52.100;5.176;2023-11-22T06:47:38;29.35;;;15.40;;
36411;SDS011;22445;52.100;5.176;2023-11-22T06:50:04;27.48;;;14.55;;
36411;SDS011;22445;52.100;5.176;2023-11-22T06:52:40;31.60;;;14.35;;
36411;SDS011;22445;52.100;5.176;2023-11-22T06:55:06;31.20;;;14.43;;
36411;SDS011;22445;52.100;5.176;2023-11-22T06:57:35;32.42;;;15.80;;
36411;SDS011;22445;52.100;5.176;2023-11-22T07:00:01;31.98;;;15.98;;
36411;SDS011;22445;52.100;5.176;2023-11-22T07:02:30;39.75;;;16.77;;
36411;SDS011;22445;52.100;5.176;2023-11-22T07:04:56;31.92;;;15.50;;
36411;SDS011;22445;52.100;5.176;2023-11-22T07:07:24;33.75;;;17.33;;
36411;SDS011;22445;52.100;5.176;2023-11-22T07:09:50;31.98;;;15.23;;
36411;SDS011;22445;52.100;5.176;2023-11-22T07:12:16;35.88;;;16.52;;
36411;SDS011;22445;52.100;5.176;2023-11-22T07:14:41;37.08;;;15.48;;
36411;SDS011;22445;52.100;5.176;2023-11-22T07:17:08;33.05;;;15.80;;
36411;SDS011;22445;52.100;5.176;2023-11-22T07:19:34;30.77;;;16.60;;
36411;SDS011;22445;52.100;5.176;2023-11-22T07:22:03;34.40;;;16.75;;
36411;SDS011;22445;52.100;5.176;2023-11-22T07:24:35;33.65;;;15.77;;
36411;SDS011;22445;52.100;5.176;2023-11-22T07:27:02;36.33;;;17.17;;
36411;SDS011;22445;52.100;5.176;2023-11-22T07:29:27;38.10;;;17.67;;
36411;SDS011;22445;52.100;5.176;2023-11-22T07:31:54;46.95;;;18.60;;
36411;SDS011;22445;52.100;5.176;2023-11-22T07:34:21;38.33;;;16.13;;
36411;SDS011;22445;52.100;5.176;2023-11-22T07:36:48;42.30;;;18.48;;
36411;SDS011;22445;52.100;5.176;2023-11-22T07:39:16;43.38;;;19.40;;
36411;SDS011;22445;52.100;5.176;2023-11-22T07:41:44;36.08;;;16.90;;
36411;SDS011;22445;52.100;5.176;2023-11-22T07:44:10;38.45;;;17.25;;
36411;SDS011;22445;52.100;5.176;2023-11-22T07:46:36;36.75;;;16.60;;
36411;SDS011;22445;52.100;5.176;2023-11-22T07:49:02;39.58;;;18.25;;
36411;SDS011;22445;52.100;5.176;2023-11-22T07:51:28;39.28;;;17.90;;
36411;SDS011;22445;52.100;5.176;2023-11-22T07:53:53;36.60;;;16.60;;
36411;SDS011;22445;52.100;5.176;2023-11-22T07:56:20;42.05;;;17.40;;
36411;SDS011;22445;52.100;5.176;2023-11-22T07:58:46;39.10;;;17.60;;
36411;SDS011;22445;52.100;5.176;2023-11-22T08:01:11;50.78;;;18.80;;
36411;SDS011;22445;52.100;5.176;2023-11-22T08:03:39;51.22;;;18.90;;
36411;SDS011;22445;52.100;5.176;2023-11-22T08:06:10;63.03;;;19.65;;
36411;SDS011;22445;52.100;5.176;2023-11-22T08:08:36;56.05;;;20.98;;
36411;SDS011;22445;52.100;5.176;2023-11-22T08:11:05;56.60;;;21.80;;
36411;SDS011;22445;52.100;5.176;2023-11-22T08:13:43;54.70;;;21.73;;
36411;SDS011;22445;52.100;5.176;2023-11-22T08:16:10;61.83;;;25.40;;
36411;SDS011;22445;52.100;5.176;2023-11-22T08:18:38;48.63;;;22.38;;
36411;SDS011;22445;52.100;5.176;2023-11-22T08:21:05;55.60;;;24.55;;
36411;SDS011;22445;52.100;5.176;2023-11-22T08:23:31;58.83;;;23.98;;
36411;SDS011;22445;52.100;5.176;2023-11-22T08:26:00;56.47;;;23.02;;
36411;SDS011;22445;52.100;5.176;2023-11-22T08:28:26;56.53;;;20.90;;
36411;SDS011;22445;52.100;5.176;2023-11-22T08:30:52;50.58;;;21.20;;
36411;SDS011;22445;52.100;5.176;2023-11-22T08:33:18;54.55;;;24.25;;
36411;SDS011;22445;52.100;5.176;2023-11-22T08:35:44;55.25;;;22.30;;
36411;SDS011;22445;52.100;5.176;2023-11-22T08:38:15;51.33;;;21.20;;
36411;SDS011;22445;52.100;5.176;2023-11-22T08:40:41;50.03;;;20.33;;
36411;SDS011;22445;52.100;5.176;2023-11-22T08:43:07;60.47;;;21.48;;
36411;SDS011;22445;52.100;5.176;2023-11-22T08:45:33;51.63;;;23.25;;
36411;SDS011;22445;52.100;5.176;2023-11-22T08:47:59;65.00;;;26.35;;
36411;SDS011;22445;52.100;5.176;2023-11-22T08:50:25;61.88;;;27.00;;
36411;SDS011;22445;52.100;5.176;2023-11-22T08:52:51;73.45;;;26.67;;
36411;SDS011;22445;52.100;5.176;2023-11-22T08:55:18;61.35;;;27.42;;
36411;SDS011;22445;52.100;5.176;2023-11-22T08:57:47;56.53;;;25.55;;
36411;SDS011;22445;52.100;5.176;2023-11-22T09:00:13;52.60;;;23.98;;
36411;SDS011;22445;52.100;5.176;2023-11-22T09:02:39;56.58;;;24.75;;
36411;SDS011;22445;52.100;5.176;2023-11-22T09:05:05;53.47;;;24.00;;
36411;SDS011;22445;52.100;5.176;2023-11-22T09:07:33;54.22;;;24.40;;
36411;SDS011;22445;52.100;5.176;2023-11-22T09:10:01;55.05;;;24.90;;
36411;SDS011;22445;52.100;5.176;2023-11-22T09:12:35;52.22;;;23.70;;
36411;SDS011;22445;52.100;5.176;2023-11-22T09:15:02;55.15;;;25.30;;
36411;SDS011;22445;52.100;5.176;2023-11-22T09:17:29;49.33;;;23.98;;
36411;SDS011;22445;52.100;5.176;2023-11-22T09:19:56;48.85;;;21.70;;
36411;SDS011;22445;52.100;5.176;2023-11-22T09:22:23;48.72;;;23.75;;
36411;SDS011;22445;52.100;5.176;2023-11-22T09:24:51;52.13;;;23.63;;
36411;SDS011;22445;52.100;5.176;2023-11-22T09:27:16;50.35;;;24.92;;
36411;SDS011;22445;52.100;5.176;2023-11-22T09:29:43;51.03;;;24.17;;
36411;SDS011;22445;52.100;5.176;2023-11-22T09:32:10;50.50;;;25.52;;
36411;SDS011;22445;52.100;5.176;2023-11-22T09:34:36;46.05;;;22.95;;
36411;SDS011;22445;52.100;5.176;2023-11-22T09:37:01;47.53;;;22.17;;
36411;SDS011;22445;52.100;5.176;2023-11-22T09:39:27;45.63;;;23.27;;
36411;SDS011;22445;52.100;5.176;2023-11-22T09:41:52;47.45;;;23.60;;
36411;SDS011;22445;52.100;5.176;2023-11-22T09:44:19;43.08;;;22.75;;
36411;SDS011;22445;52.100;5.176;2023-11-22T09:46:46;40.88;;;21.13;;
36411;SDS011;22445;52.100;5.176;2023-11-22T09:49:15;41.58;;;23.60;;
36411;SDS011;22445;52.100;5.176;2023-11-22T09:51:47;44.50;;;22.58;;
36411;SDS011;22445;52.100;5.176;2023-11-22T09:54:14;41.78;;;21.38;;
36411;SDS011;22445;52.100;5.176;2023-11-22T09:56:40;35.42;;;20.77;;
36411;SDS011;22445;52.100;5.176;2023-11-22T09:59:06;35.92;;;19.45;;
36411;SDS011;22445;52.100;5.176;2023-11-22T10:01:32;30.80;;;18.52;;
36411;SDS011;22445;52.100;5.176;2023-11-22T10:04:02;28.90;;;18.55;;
36411;SDS011;22445;52.100;5.176;2023-11-22T10:06:30;31.75;;;18.17;;
36411;SDS011;22445;52.100;5.176;2023-11-22T10:09:01;31.25;;;18.05;;
36411;SDS011;22445;52.100;5.176;2023-11-22T10:11:36;26.70;;;16.88;;
36411;SDS011;22445;52.100;5.176;2023-11-22T10:14:04;25.75;;;14.65;;
36411;SDS011;22445;52.100;5.176;2023-11-22T10:16:30;25.85;;;16.23;;
36411;SDS011;22445;52.100;5.176;2023-11-22T10:18:55;25.05;;;16.45;;
36411;SDS011;22445;52.100;5.176;2023-11-22T10:21:25;26.02;;;16.67;;
36411;SDS011;22445;52.100;5.176;2023-11-22T10:23:56;24.98;;;16.67;;
36411;SDS011;22445;52.100;5.176;2023-11-22T10:26:23;26.88;;;16.58;;
36411;SDS011;22445;52.100;5.176;2023-11-22T10:28:53;25.63;;;15.38;;
36411;SDS011;22445;52.100;5.176;2023-11-22T10:31:19;25.77;;;16.60;;
36411;SDS011;22445;52.100;5.176;2023-11-22T10:33:46;25.52;;;16.58;;
36411;SDS011;22445;52.100;5.176;2023-11-22T10:36:12;26.67;;;17.25;;
36411;SDS011;22445;52.100;5.176;2023-11-22T10:38:39;22.42;;;14.85;;
36411;SDS011;22445;52.100;5.176;2023-11-22T10:41:10;24.25;;;16.48;;
36411;SDS011;22445;52.100;5.176;2023-11-22T10:43:35;24.45;;;15.65;;
36411;SDS011;22445;52.100;5.176;2023-11-22T10:46:02;22.42;;;15.20;;
36411;SDS011;22445;52.100;5.176;2023-11-22T10:48:29;22.98;;;15.45;;
36411;SDS011;22445;52.100;5.176;2023-11-22T10:50:57;22.10;;;15.85;;
36411;SDS011;22445;52.100;5.176;2023-11-22T10:53:29;22.35;;;14.68;;
36411;SDS011;22445;52.100;5.176;2023-11-22T10:56:16;19.55;;;14.25;;
36411;SDS011;22445;52.100;5.176;2023-11-22T10:58:48;22.42;;;15.20;;
36411;SDS011;22445;52.100;5.176;2023-11-22T11:01:15;21.25;;;15.00;;
36411;SDS011;22445;52.100;5.176;2023-11-22T11:03:45;21.17;;;14.57;;
36411;SDS011;22445;52.100;5.176;2023-11-22T11:06:14;22.23;;;15.02;;
36411;SDS011;22445;52.100;5.176;2023-11-22T11:08:40;20.52;;;14.02;;
36411;SDS011;22445;52.100;5.176;2023-11-22T11:11:06;20.05;;;14.07;;
36411;SDS011;22445;52.100;5.176;2023-11-22T11:13:32;19.92;;;14.75;;
36411;SDS011;22445;52.100;5.176;2023-11-22T11:15:58;18.75;;;13.52;;
36411;SDS011;22445;52.100;5.176;2023-11-22T11:18:24;17.35;;;13.40;;
36411;SDS011;22445;52.100;5.176;2023-11-22T11:20:51;21.40;;;14.18;;
36411;SDS011;22445;52.100;5.176;2023-11-22T11:23:21;17.33;;;13.00;;
36411;SDS011;22445;52.100;5.176;2023-11-22T11:25:53;18.63;;;13.30;;
36411;SDS011;22445;52.100;5.176;2023-11-22T11:28:23;22.48;;;14.80;;
36411;SDS011;22445;52.100;5.176;2023-11-22T11:30:52;22.73;;;13.93;;
36411;SDS011;22445;52.100;5.176;2023-11-22T11:33:32;20.08;;;14.20;;
36411;SDS011;22445;52.100;5.176;2023-11-22T11:36:00;20.25;;;14.50;;
36411;SDS011;22445;52.100;5.176;2023-11-22T11:38:31;22.88;;;14.40;;
36411;SDS011;22445;52.100;5.176;2023-11-22T11:41:06;23.80;;;14.75;;
36411;SDS011;22445;52.100;5.176;2023-11-22T11:46:27;24.63;;;15.15;;
36411;SDS011;22445;52.100;5.176;2023-11-22T11:48:54;23.77;;;15.63;;
36411;SDS011;22445;52.100;5.176;2023-11-22T11:51:24;23.08;;;17.20;;
36411;SDS011;22445;52.100;5.176;2023-11-22T11:53:51;21.88;;;15.40;;
36411;SDS011;22445;52.100;5.176;2023-11-22T11:56:17;21.10;;;15.38;;
36411;SDS011;22445;52.100;5.176;2023-11-22T11:58:44;21.02;;;14.88;;
36411;SDS011;22445;52.100;5.176;2023-11-22T12:01:11;22.13;;;15.68;;
36411;SDS011;22445;52.100;5.176;2023-11-22T12:03:38;20.95;;;15.18;;
36411;SDS011;22445;52.100;5.176;2023-11-22T12:06:05;22.08;;;16.00;;
36411;SDS011;22445;52.100;5.176;2023-11-22T12:08:31;18.13;;;14.20;;
36411;SDS011;22445;52.100;5.176;2023-11-22T12:11:01;17.02;;;14.25;;
36411;SDS011;22445;52.100;5.176;2023-11-22T12:13:32;15.77;;;13.50;;
36411;SDS011;22445;52.100;5.176;2023-11-22T12:15:58;16.42;;;12.77;;
36411;SDS011;22445;52.100;5.176;2023-11-22T12:18:24;17.85;;;12.68;;
36411;SDS011;22445;52.100;5.176;2023-11-22T12:21:01;14.82;;;12.48;;
36411;SDS011;22445;52.100;5.176;2023-11-22T12:23:27;14.48;;;11.23;;
36411;SDS011;22445;52.100;5.176;2023-11-22T12:25:54;15.85;;;11.32;;
36411;SDS011;22445;52.100;5.176;2023-11-22T12:28:27;14.25;;;11.95;;
36411;SDS011;22445;52.100;5.176;2023-11-22T12:31:11;12.75;;;11.38;;
36411;SDS011;22445;52.100;5.176;2023-11-22T12:33:37;13.75;;;11.15;;
36411;SDS011;22445;52.100;5.176;2023-11-22T12:36:04;16.95;;;11.50;;
36411;SDS011;22445;52.100;5.176;2023-11-22T12:38:31;12.55;;;11.20;;
36411;SDS011;22445;52.100;5.176;2023-11-22T12:40:57;13.98;;;11.82;;
36411;SDS011;22445;52.100;5.176;2023-11-22T12:43:23;14.18;;;11.63;;
36411;SDS011;22445;52.100;5.176;2023-11-22T12:46:01;16.90;;;11.88;;
36411;SDS011;22445;52.100;5.176;2023-11-22T12:48:38;18.58;;;11.90;;
36411;SDS011;22445;52.100;5.176;2023-11-22T12:51:14;15.65;;;12.15;;
36411;SDS011;22445;52.100;5.176;2023-11-22T12:53:42;14.45;;;12.10;;
36411;SDS011;22445;52.100;5.176;2023-11-22T12:56:07;16.10;;;13.13;;
36411;SDS011;22445;52.100;5.176;2023-11-22T12:58:34;17.98;;;13.27;;
36411;SDS011;22445;52.100;5.176;2023-11-22T13:00:59;17.58;;;13.07;;
36411;SDS011;22445;52.100;5.176;2023-11-22T13:03:25;18.95;;;13.30;;
36411;SDS011;22445;52.100;5.176;2023-11-22T13:05:51;16.77;;;12.05;;
36411;SDS011;22445;52.100;5.176;2023-11-22T13:08:17;16.73;;;12.35;;
36411;SDS011;22445;52.100;5.176;2023-11-22T13:10:44;20.13;;;12.82;;
36411;SDS011;22445;52.100;5.176;2023-11-22T13:13:12;18.42;;;13.07;;
36411;SDS011;22445;52.100;5.176;2023-11-22T13:15:38;17.30;;;12.95;;
36411;SDS011;22445;52.100;5.176;2023-11-22T13:18:05;18.38;;;13.00;;
36411;SDS011;22445;52.100;5.176;2023-11-22T13:20:31;17.85;;;13.43;;
36411;SDS011;22445;52.100;5.176;2023-11-22T13:22:57;19.13;;;12.93;;
36411;SDS011;22445;52.100;5.176;2023-11-22T13:25:25;20.75;;;15.07;;
36411;SDS011;22445;52.100;5.176;2023-11-22T13:27:51;19.15;;;13.70;;
36411;SDS011;22445;52.100;5.176;2023-11-22T13:30:18;19.70;;;14.98;;
36411;SDS011;22445;52.100;5.176;2023-11-22T13:32:48;21.02;;;14.73;;
36411;SDS011;22445;52.100;5.176;2023-11-22T13:35:17;20.05;;;14.88;;
36411;SDS011;22445;52.100;5.176;2023-11-22T13:37:45;20.23;;;15.00;;
36411;SDS011;22445;52.100;5.176;2023-11-22T13:40:16;23.02;;;15.18;;
36411;SDS011;22445;52.100;5.176;2023-11-22T13:42:47;20.33;;;15.52;;
36411;SDS011;22445;52.100;5.176;2023-11-22T13:45:15;23.92;;;16.23;;
36411;SDS011;22445;52.100;5.176;2023-11-22T13:47:42;21.60;;;15.18;;
36411;SDS011;22445;52.100;5.176;2023-11-22T13:50:15;23.70;;;16.35;;
36411;SDS011;22445;52.100;5.176;2023-11-22T13:52:53;25.10;;;16.38;;
36411;SDS011;22445;52.100;5.176;2023-11-22T13:55:20;21.83;;;15.43;;
36411;SDS011;22445;52.100;5.176;2023-11-22T13:57:49;23.75;;;15.18;;
36411;SDS011;22445;52.100;5.176;2023-11-22T14:00:19;24.98;;;16.25;;
36411;SDS011;22445;52.100;5.176;2023-11-22T14:02:51;22.73;;;15.65;;
36411;SDS011;22445;52.100;5.176;2023-11-22T14:05:21;22.85;;;15.02;;
36411;SDS011;22445;52.100;5.176;2023-11-22T14:07:53;21.63;;;14.65;;
36411;SDS011;22445;52.100;5.176;2023-11-22T14:10:19;19.38;;;13.15;;
36411;SDS011;22445;52.100;5.176;2023-11-22T14:12:47;19.65;;;11.52;;
36411;SDS011;22445;52.100;5.176;2023-11-22T14:15:14;21.20;;;11.65;;
36411;SDS011;22445;52.100;5.176;2023-11-22T14:17:40;17.52;;;11.52;;
36411;SDS011;22445;52.100;5.176;2023-11-22T14:20:09;18.83;;;13.23;;
36411;SDS011;22445;52.100;5.176;2023-11-22T14:22:38;9.63;;;6.15;;
36411;SDS011;22445;52.100;5.176;2023-11-22T14:25:05;13.65;;;7.40;;
36411;SDS011;22445;52.100;5.176;2023-11-22T14:27:36;17.80;;;10.48;;